createdAt,value
2023-10-16T00:00:00.177Z,2.81
2023-10-16T00:05:00.122Z,2.88
2023-10-16T00:10:00.074Z,2.88
2023-10-16T00:15:00.084Z,2.81
2023-10-16T00:20:00.065Z,2.81
2023-10-16T00:25:00.265Z,2.75
2023-10-16T00:30:00.080Z,2.69
2023-10-16T00:35:00.068Z,2.69
2023-10-16T00:40:00.075Z,2.75
2023-10-16T00:45:00.190Z,2.75
2023-10-16T00:50:00.109Z,2.75
2023-10-16T00:55:00.101Z,2.75
2023-10-16T01:00:00.332Z,2.69
2023-10-16T01:05:00.120Z,2.69
2023-10-16T01:10:00.078Z,2.75
2023-10-16T01:15:00.073Z,2.69
2023-10-16T01:20:00.072Z,2.69
2023-10-16T01:25:00.130Z,2.63
2023-10-16T01:30:00.078Z,2.75
2023-10-16T01:35:00.079Z,2.81
2023-10-16T01:40:00.098Z,2.94
2023-10-16T01:45:00.169Z,3.19
2023-10-16T01:50:00.075Z,3.25
2023-10-16T01:55:00.076Z,3.44
2023-10-16T02:00:00.148Z,3.5
2023-10-16T02:05:00.185Z,3.56
2023-10-16T02:10:00.082Z,3.56
2023-10-16T02:15:00.084Z,3.56
2023-10-16T02:20:00.077Z,3.38
2023-10-16T02:25:00.151Z,3.19
2023-10-16T02:30:00.149Z,3.06
2023-10-16T02:35:00.070Z,3.06
2023-10-16T02:40:00.094Z,3.19
2023-10-16T02:45:00.108Z,3.31
2023-10-16T02:50:00.081Z,3.38
2023-10-16T02:55:00.081Z,3.5
2023-10-16T03:00:00.145Z,3.44
2023-10-16T03:05:00.127Z,3.44
2023-10-16T03:10:00.096Z,3.5
2023-10-16T03:15:00.098Z,3.63
2023-10-16T03:20:00.095Z,3.75
2023-10-16T03:25:00.143Z,3.88
2023-10-16T03:30:00.178Z,4
2023-10-16T03:35:00.082Z,4.13
2023-10-16T03:40:00.130Z,4.19
2023-10-16T03:45:00.112Z,4.25
2023-10-16T03:50:00.072Z,4.31
2023-10-16T03:55:00.248Z,4.38
2023-10-16T04:00:00.145Z,4.44
2023-10-16T04:05:00.139Z,4.5
2023-10-16T04:10:01.222Z,4.5
2023-10-16T04:15:00.090Z,4.56
2023-10-16T04:20:00.076Z,4.5
2023-10-16T04:25:00.145Z,4.5
2023-10-16T04:30:00.161Z,4.56
2023-10-16T04:35:00.089Z,4.56
2023-10-16T04:40:00.102Z,4.63
2023-10-16T04:45:00.120Z,4.63
2023-10-16T04:50:00.080Z,4.56
2023-10-16T04:55:00.164Z,4.56
2023-10-16T05:00:00.129Z,4.63
2023-10-16T05:05:00.100Z,4.69
2023-10-16T05:10:00.117Z,4.69
2023-10-16T05:15:00.071Z,4.69
2023-10-16T05:20:00.090Z,4.56
2023-10-16T05:25:00.158Z,4.38
2023-10-16T05:30:01.081Z,4.31
2023-10-16T05:35:00.120Z,4.19
2023-10-16T05:40:00.103Z,4.19
2023-10-16T05:45:00.112Z,4.31
2023-10-16T05:50:00.070Z,4.38
2023-10-16T05:55:00.106Z,4.5
2023-10-16T06:00:00.110Z,4.56
2023-10-16T06:05:00.193Z,4.63
2023-10-16T06:10:00.116Z,4.69
2023-10-16T06:15:00.078Z,4.69
2023-10-16T06:20:00.074Z,4.69
2023-10-16T06:25:00.224Z,4.63
2023-10-16T06:30:00.088Z,4.63
2023-10-16T06:35:00.172Z,4.69
2023-10-16T06:40:00.504Z,4.88
2023-10-16T06:45:00.143Z,5.19
2023-10-16T06:50:00.077Z,5.38
2023-10-16T06:55:00.136Z,5.5
2023-10-16T07:00:00.093Z,5.63
2023-10-16T07:05:00.096Z,5.75
2023-10-16T07:10:00.120Z,5.94
2023-10-16T07:15:00.076Z,6
2023-10-16T07:20:00.122Z,6
2023-10-16T07:25:00.172Z,6.13
2023-10-16T07:30:00.088Z,6.25
2023-10-16T07:35:00.074Z,6.38
2023-10-16T07:40:00.104Z,6.38
2023-10-16T07:45:00.120Z,6.56
2023-10-16T07:50:00.082Z,6.56
2023-10-16T07:55:00.107Z,6.69
2023-10-16T08:00:00.109Z,6.69
2023-10-16T08:05:00.098Z,6.75
2023-10-16T08:10:00.100Z,6.63
2023-10-16T08:15:00.076Z,6.81
2023-10-16T08:20:01.084Z,7.19
2023-10-16T08:25:00.120Z,7.56
2023-10-16T08:30:00.310Z,8.38
2023-10-16T08:35:02.179Z,8.75
2023-10-16T08:40:01.127Z,8.75
2023-10-16T08:45:00.114Z,8.75
2023-10-16T08:50:00.076Z,8.63
2023-10-16T08:55:00.113Z,8.69
2023-10-16T09:00:00.090Z,8.94
2023-10-16T09:05:00.099Z,8.88
2023-10-16T09:10:00.100Z,8.75
2023-10-16T09:15:00.078Z,8.69
2023-10-16T09:20:05.689Z,8.69
2023-10-16T09:25:00.173Z,8.5
2023-10-16T09:30:00.211Z,8.25
2023-10-16T09:35:00.081Z,8.44
2023-10-16T09:40:00.076Z,8.81
2023-10-16T09:45:00.144Z,9.25
2023-10-16T09:50:00.109Z,9.56
2023-10-16T09:55:00.109Z,10
2023-10-16T10:00:00.095Z,9.75
2023-10-16T10:05:00.190Z,9.63
2023-10-16T10:10:00.111Z,9.75
2023-10-16T10:15:00.106Z,9.75
2023-10-16T10:20:00.082Z,9.69
2023-10-16T10:25:03.205Z,9.69
2023-10-16T10:30:00.163Z,9.75
2023-10-16T10:35:00.091Z,9.69
2023-10-16T10:40:00.114Z,9.75
2023-10-16T10:45:00.196Z,9.75
2023-10-16T10:50:01.091Z,9.63
2023-10-16T10:55:00.124Z,9.63
2023-10-16T11:00:00.147Z,9.38
2023-10-16T11:05:00.559Z,9.38
2023-10-16T11:10:00.101Z,9.38
2023-10-16T11:15:00.078Z,9.31
2023-10-16T11:20:00.164Z,9.31
2023-10-16T11:25:00.276Z,9.31
2023-10-16T11:30:00.093Z,9.5
2023-10-16T11:35:01.090Z,9.69
2023-10-16T11:40:00.176Z,9.88
2023-10-16T11:45:00.302Z,10.06
2023-10-16T11:50:00.077Z,10.13
2023-10-16T11:55:00.122Z,10.38
2023-10-16T12:00:00.082Z,10.56
2023-10-16T12:05:00.231Z,10.44
2023-10-16T12:10:01.821Z,10.5
2023-10-16T12:15:00.075Z,10.56
2023-10-16T12:20:00.086Z,10.75
2023-10-16T12:25:00.297Z,10.94
2023-10-16T12:30:00.080Z,10.75
2023-10-16T12:35:00.069Z,10.81
2023-10-16T12:40:00.152Z,11.25
2023-10-16T12:45:00.255Z,11.5
2023-10-16T12:50:01.084Z,11.5
2023-10-16T12:55:00.070Z,11.25
2023-10-16T13:00:00.092Z,10.63
2023-10-16T13:05:00.192Z,10.19
2023-10-16T13:10:00.087Z,9.94
2023-10-16T13:15:00.076Z,9.75
2023-10-16T13:20:00.076Z,9.81
2023-10-16T13:25:00.243Z,10
2023-10-16T13:30:00.093Z,10.25
2023-10-16T13:35:00.078Z,10.38
2023-10-16T13:40:00.146Z,10.25
2023-10-16T13:45:00.164Z,10.13
2023-10-16T13:50:00.080Z,9.88
2023-10-16T13:55:00.118Z,9.75
2023-10-16T14:00:00.106Z,9.56
2023-10-16T14:05:00.175Z,9.5
2023-10-16T14:10:00.081Z,9.5
2023-10-16T14:15:00.072Z,9.5
2023-10-16T14:20:00.076Z,9.38
2023-10-16T14:25:00.155Z,9.31
2023-10-16T14:30:00.115Z,9.31
2023-10-16T14:35:00.078Z,9.38
2023-10-16T14:40:00.198Z,9.44
2023-10-16T14:45:00.124Z,9.5
2023-10-16T14:50:00.074Z,9.56
2023-10-16T14:55:00.132Z,9.63
2023-10-16T15:00:00.131Z,9.75
2023-10-16T15:05:00.184Z,9.88
2023-10-16T15:10:00.113Z,9.94
2023-10-16T15:15:00.083Z,10
2023-10-16T15:20:00.075Z,10
2023-10-16T15:25:01.126Z,9.94
2023-10-16T15:30:00.092Z,9.94
2023-10-16T15:35:00.079Z,9.88
2023-10-16T15:40:00.151Z,9.75
2023-10-16T15:45:00.119Z,9.63
2023-10-16T15:50:00.086Z,9.56
2023-10-16T15:55:00.143Z,9.38
2023-10-16T16:00:00.078Z,9.25
2023-10-16T16:05:00.300Z,9.06
2023-10-16T16:10:00.158Z,9
2023-10-16T16:15:00.085Z,8.94
2023-10-16T16:20:00.096Z,8.81
2023-10-16T16:25:00.173Z,8.69
2023-10-16T16:30:00.088Z,8.56
2023-10-16T16:35:00.086Z,8.44
2023-10-16T16:40:00.074Z,8.38
2023-10-16T16:45:00.154Z,8.31
2023-10-16T16:50:00.095Z,8.31
2023-10-16T16:55:00.075Z,8.31
2023-10-16T17:00:00.117Z,8.25
2023-10-16T17:05:00.118Z,8.31
2023-10-16T17:10:00.086Z,8.31
2023-10-16T17:15:00.099Z,8.25
2023-10-16T17:20:00.072Z,8.19
2023-10-16T17:25:00.108Z,8.06
2023-10-16T17:30:00.168Z,7.94
2023-10-16T17:35:00.086Z,7.75
2023-10-16T17:40:00.085Z,7.63
2023-10-16T17:45:00.161Z,7.44
2023-10-16T17:50:01.661Z,7.31
2023-10-16T17:55:00.077Z,7.25
2023-10-16T18:00:00.121Z,7.06
2023-10-16T18:05:00.145Z,6.94
2023-10-16T18:10:00.080Z,6.88
2023-10-16T18:15:00.103Z,6.81
2023-10-16T18:20:00.075Z,6.69
2023-10-16T18:25:00.176Z,6.63
2023-10-16T18:30:00.111Z,6.56
2023-10-16T18:35:00.067Z,6.5
2023-10-16T18:40:00.076Z,6.44
2023-10-16T18:45:00.143Z,6.31
2023-10-16T18:50:00.072Z,6.25
2023-10-16T18:55:00.080Z,6.13
2023-10-16T19:00:00.149Z,6.06
2023-10-16T19:05:00.105Z,5.94
2023-10-16T19:10:00.087Z,5.81
2023-10-16T19:15:00.116Z,5.81
2023-10-16T19:20:00.073Z,5.75
2023-10-16T19:25:00.120Z,5.69
2023-10-16T19:30:00.122Z,5.63
2023-10-16T19:35:00.070Z,5.63
2023-10-16T19:40:00.074Z,5.56
2023-10-16T19:45:00.145Z,5.5
2023-10-16T19:50:00.077Z,5.38
2023-10-16T19:55:00.079Z,5.31
2023-10-16T20:00:00.229Z,5.25
2023-10-16T20:05:00.135Z,5.13
2023-10-16T20:10:00.073Z,5.06
2023-10-16T20:15:00.112Z,5.06
2023-10-16T20:20:00.083Z,4.94
2023-10-16T20:25:00.124Z,4.94
2023-10-16T20:30:00.104Z,4.94
2023-10-16T20:35:01.472Z,5
2023-10-16T20:40:00.148Z,4.88
2023-10-16T20:45:00.129Z,4.75
2023-10-16T20:50:00.074Z,4.63
2023-10-16T20:55:00.082Z,4.69
2023-10-16T21:00:00.139Z,4.63
2023-10-16T21:05:00.145Z,4.56
2023-10-16T21:10:00.109Z,4.56
2023-10-16T21:15:01.133Z,4.5
2023-10-16T21:20:00.076Z,4.56
2023-10-16T21:25:00.105Z,4.5
2023-10-16T21:30:00.134Z,4.44
2023-10-16T21:35:00.077Z,4.38
2023-10-16T21:40:00.088Z,4.25
2023-10-16T21:45:00.155Z,4.19
2023-10-16T21:50:00.078Z,4.19
2023-10-16T21:55:00.081Z,4.13
2023-10-16T22:00:00.182Z,4.06
2023-10-16T22:05:00.115Z,4.19
2023-10-16T22:10:00.079Z,4.19
2023-10-16T22:15:00.157Z,4.31
2023-10-16T22:20:00.075Z,4.31
2023-10-16T22:25:00.116Z,4.38
2023-10-16T22:30:00.156Z,4.44
2023-10-16T22:35:00.073Z,4.31
2023-10-16T22:40:00.076Z,4.19
2023-10-16T22:45:00.183Z,4.06
2023-10-16T22:50:00.074Z,4.06
2023-10-16T22:55:00.125Z,4.06
2023-10-16T23:00:00.092Z,3.94
2023-10-16T23:05:00.121Z,4
2023-10-16T23:10:00.086Z,4
2023-10-16T23:15:00.173Z,4
2023-10-16T23:20:00.099Z,3.81
2023-10-16T23:25:00.162Z,3.75
2023-10-16T23:30:00.136Z,3.69
2023-10-16T23:35:00.121Z,3.81
2023-10-16T23:40:00.111Z,3.81
2023-10-16T23:45:00.182Z,3.88
2023-10-16T23:50:00.128Z,3.88
2023-10-16T23:55:00.119Z,3.88
